Flight Track Log - Related Links

Times and Time Zones

All times are in EDT time to prevent confusion due to time zone crossing. See the UAL906 flight status page for this flight to view local times or setup timezone preferences in your user account.

Time Position Orientation Groundspeed Altitude Reporting Facility
EDT Latitude Longitude Course Direction KTS MPH feet Rate Location/Type
Fri 07:17:44 50.0350 8.5450 90° East 105 121  Level FlightAware ADS-B
Fri 07:17:59 50.0380 8.5570 69° East 150 173 938 Level FlightAware ADS-B
Fri 07:18:16 50.0430 8.5790 71° East 180 207 500 1,953 Climbing FlightAware ADS-B
Fri 07:18:42 50.0500 8.6100 71° East 185 213 1,400 2,217 Climbing FlightAware ADS-B
Fri 07:19:02 50.0560 8.6360 70° East 187 215 2,200 2,143 Climbing FlightAware ADS-B
Fri 07:19:24 50.0620 8.6640 72° East 190 219 2,900 1,857 Climbing FlightAware ADS-B
Fri 07:19:44 50.0680 8.6910 71° East 194 223 3,500 1,500 Climbing FlightAware ADS-B
Fri 07:19:56 50.0730 8.7050 61° Northeast 202 232 3,700 600 Climbing FlightAware ADS-B
Fri 07:20:04 50.0770 8.7140 55° Northeast 214 246 3,700 600 Level FlightAware ADS-B
Fri 07:20:16 50.0880 8.7250 33° Northeast 231 266 3,900 1,459 Climbing FlightAware ADS-B
Fri 07:20:41 50.1130 8.7400 21° North 242 278 4,600 1,364 Climbing FlightAware ADS-B
Fri 07:21:00 50.1340 8.7540 23° Northeast 263 303 4,900 1,692 Climbing FlightAware ADS-B
Fri 07:21:20 50.1560 8.7680 22° Northeast 266 306 5,700 2,286 Climbing FlightAware ADS-B
Fri 07:21:42 50.1840 8.7800 15° North 269 310 6,500 2,082 Climbing FlightAware ADS-B
Fri 07:22:09 50.2120 8.7690 346° North 267 307 7,400 2,000 Climbing FlightAware ADS-B
Fri 07:22:15 50.2200 8.7600 324° Northwest 268 308 7,600 2,640 Climbing FlightAware ADS-B
Fri 07:22:34 50.2370 8.7360 318° Northwest 264 304 8,500 2,455 Climbing FlightAware ADS-B
Fri 07:22:59 50.2600 8.7050 319° Northwest 267 307 9,400 2,229 Climbing FlightAware ADS-B
Fri 07:23:09 50.2700 8.6900 316° Northwest 268 308 9,800 1,600 Climbing FlightAware ADS-B
Fri 07:23:44 50.2970 8.6360 308° West 289 333 10,600 1,040 Climbing FlightAware ADS-B
Fri 07:24:24 50.3290 8.5640 305° West 322 371 11,100 1,029 Climbing FlightAware ADS-B
Fri 07:24:54 50.3560 8.5050 306° West 343 395 11,800 1,754 Climbing FlightAware ADS-B
Fri 07:25:29 50.3900 8.4290 305° West 348 400 13,000 1,971 Climbing FlightAware ADS-B
Fri 07:26:04 50.4210 8.3610 306° West 353 406 14,100 1,971 Climbing FlightAware ADS-B
Fri 07:26:39 50.4550 8.2840 305° West 355 409 15,300 1,895 Climbing FlightAware ADS-B
Fri 07:27:20 50.4940 8.1970 305° West 363 418 16,500 1,680 Climbing FlightAware ADS-B
Fri 07:27:54 50.5260 8.1240 305° West 367 422 17,400 1,636 Climbing FlightAware ADS-B
Fri 07:28:37 50.5690 8.0270 305° West 375 432 18,600 1,538 Climbing FlightAware ADS-B
Fri 07:29:12 50.6030 7.9490 305° West 380 437 19,400 1,385 Climbing FlightAware ADS-B
Fri 07:29:42 50.6330 7.8800 304° West 384 442 20,100 1,477 Climbing FlightAware ADS-B
Fri 07:30:17 50.6680 7.7990 304° West 388 447 21,000 1,360 Climbing FlightAware ADS-B
Fri 07:30:57 50.7090 7.7060 305° West 394 453 21,800 1,286 Climbing FlightAware ADS-B
Fri 07:31:27 50.7370 7.6420 305° West 393 452 22,500 1,385 Climbing FlightAware ADS-B
Fri 07:32:02 50.7750 7.5560 305° West 399 459 23,300 1,286 Climbing FlightAware ADS-B
Fri 07:32:37 50.8100 7.4740 304° West 402 463 24,000 1,333 Climbing FlightAware ADS-B
Fri 07:33:14 50.8530 7.3740 304° West 406 467 24,900 1,378 Climbing FlightAware ADS-B
Fri 07:33:51 50.8920 7.2830 304° West 408 470 25,700 1,297 Climbing FlightAware ADS-B
Fri 07:34:28 50.9310 7.1930 305° West 410 472 26,500 1,304 Climbing FlightAware ADS-B
Fri 07:35:00 50.9670 7.1150 306° West 412 474 27,200 1,273 Climbing FlightAware ADS-B
Fri 07:35:34 51.0130 7.0400 314° West 413 475 27,900 1,200 Climbing FlightAware ADS-B
Fri 07:36:10 51.0530 6.9560 307° West 412 474 28,600 1,135 Climbing FlightAware ADS-B
Fri 07:36:48 51.0900 6.8550 300° West 417 480 29,300 1,304 Climbing FlightAware ADS-B
Fri 07:37:19 51.1190 6.7760 300° West 411 473 30,100 1,235 Climbing FlightAware ADS-B
Fri 07:37:56 51.1530 6.6800 299° West 413 475 30,700 750 Climbing FlightAware ADS-B
Fri 07:38:31 51.1870 6.5850 300° West 411 473 31,000 254 Climbing FlightAware ADS-B
Fri 07:39:07 51.2210 6.4890 300° West 411 473 31,000  Level FlightAware ADS-B
Fri 07:39:42 51.2570 6.3980 302° West 411 473 31,000  Level FlightAware ADS-B
Fri 07:40:13 51.2910 6.3270 307° West 412 474 31,000  Level FlightAware ADS-B
Fri 07:40:51 51.3400 6.2360 311° West 412 474 31,000  Level FlightAware ADS-B
Fri 07:41:26 51.3830 6.1560 311° West 412 474 31,000 358 Level FlightAware ADS-B
Fri 07:41:58 51.4220 6.0840 311° West 405 466 31,400 696 Climbing FlightAware ADS-B
Fri 07:42:35 51.4680 5.9970 310° West 402 463 31,800 486 Climbing FlightAware ADS-B
Fri 07:43:12 51.5120 5.9140 310° West 404 465 32,000 176 Climbing FlightAware ADS-B
Fri 07:43:43 51.5490 5.8450 311° West 406 467 32,000  Level FlightAware ADS-B
Fri 07:44:28 51.6010 5.7450 310° West 407 468 32,000 225 Level FlightAware ADS-B
Fri 07:45:03 51.6450 5.6620 311° West 409 471 32,300 658 Climbing FlightAware ADS-B
Fri 07:45:41 51.6910 5.5740 310° West 408 470 32,800 857 Climbing FlightAware ADS-B
Fri 07:46:13 51.7300 5.4990 310° West 408 470 33,300 923 Climbing FlightAware ADS-B
Fri 07:46:46 51.7680 5.4270 310° West 406 467 33,800 811 Climbing FlightAware ADS-B
Fri 07:46:50 51.7716 5.4084 310° West 482 555 33,800 333 Level FlightAware UK
Fri 07:47:22 51.8140 5.3370 310° West 406 467 34,000 174 Climbing FlightAware ADS-B
Fri 07:47:59 51.8580 5.2540 311° West 406 467 34,000  Level FlightAware ADS-B
Fri 07:48:36 51.9000 5.1710 309° West 406 467 34,000  Level FlightAware ADS-B
Fri 07:49:10 51.9440 5.0870 310° West 406 467 34,000  Level FlightAware ADS-B
Fri 07:49:52 51.9910 4.9940 309° West 406 467 34,000  Level FlightAware ADS-B
Fri 07:50:25 52.0320 4.9140 310° West 406 467 34,000  Level FlightAware ADS-B
Fri 07:51:02 52.0750 4.8300 310° West 407 468 34,000  Level FlightAware ADS-B
Fri 07:51:34 52.1150 4.7510 310° West 407 468 34,000  Level FlightAware ADS-B
Fri 07:52:09 52.1560 4.6690 309° West 407 468 34,000  Level FlightAware ADS-B
Fri 07:52:46 52.2020 4.5780 310° West 408 470 34,000  Level FlightAware ADS-B
Fri 07:53:21 52.2420 4.4990 310° West 409 471 34,000  Level FlightAware ADS-B
Fri 07:53:55 52.2864 4.4119 310° West 482 555 34,000  Level FlightAware UK
Fri 07:53:55 52.2790 4.4240 310° West 410 472 34,000  Level FlightAware ADS-B
Fri 07:54:31 52.3270 4.3290 310° West 410 472 34,000  Level FlightAware ADS-B
Fri 07:55:07 52.3700 4.2420 309° West 410 472 34,000  Level FlightAware ADS-B
Fri 07:55:42 52.4110 4.1590 309° West 410 472 34,000  Level FlightAware ADS-B
Fri 07:56:14 52.4490 4.0830 309° West 411 473 34,000  Level FlightAware ADS-B
Fri 07:56:49 52.4920 3.9950 309° West 410 472 34,000  Level FlightAware ADS-B
Fri 07:57:26 52.5350 3.9070 309° West 410 472 34,000  Level FlightAware ADS-B
Fri 07:58:03 52.5800 3.8150 309° West 410 472 34,000  Level FlightAware ADS-B
Fri 07:58:35 52.6150 3.7430 309° West 410 472 34,000  Level FlightAware ADS-B
Fri 07:59:07 52.6569 3.6581 309° West 482 555 34,000  Level FlightAware UK
Fri 07:59:09 52.6570 3.6560 309° West 411 473 34,000  Level FlightAware ADS-B
Fri 07:59:43 52.6996 3.5701 309° West 482 555 34,000  Level FlightAware UK
Fri 07:59:47 52.7020 3.5640 309° West 411 473 34,000  Level FlightAware ADS-B
Fri 08:00:19 52.7400 3.4850 308° West 412 474 34,000  Level FlightAware ADS-B
Fri 08:00:47 52.7730 3.4170 309° West 412 474 34,000  Level FlightAware ADS-B
Fri 08:01:21 52.8130 3.3320 308° West 412 474 34,000  Level FlightAware ADS-B
Fri 08:01:55 52.8551 3.2460 308° West 482 555 34,000  Level FlightAware UK
Fri 08:02:00 52.8580 3.2390 308° West 412 474 34,000  Level FlightAware ADS-B
Fri 08:02:36 52.9000 3.1430 306° West 411 473 34,000  Level FlightAware ADS-B
Fri 08:03:07 52.9230 3.0630 296° West 411 473 34,000  Level FlightAware ADS-B
Fri 08:03:37 52.9422 2.9633 296° West 480 552 34,000  Level FlightAware UK
Fri 08:03:44 52.9460 2.9450 296° West 412 474 34,000  Level FlightAware ADS-B
Fri 08:04:21 52.9650 2.8400 287° West 413 475 34,000  Level FlightAware ADS-B
Fri 08:04:56 52.9840 2.7340 287° West 414 476 34,000  Level FlightAware ADS-B
Fri 08:05:28 53.0030 2.6290 287° West 414 476 34,000  Level FlightAware ADS-B
Fri 08:06:05 53.0220 2.5210 286° West 413 475 34,000  Level FlightAware ADS-B
Fri 08:06:40 53.0420 2.4130 287° West 414 476 34,000  Level FlightAware ADS-B
Fri 08:07:10 53.0570 2.3250 286° West 415 478 34,000  Level FlightAware ADS-B
Fri 08:07:49 53.0790 2.2020 287° West 416 479 34,000  Level FlightAware ADS-B
Fri 08:07:59 53.0842 2.1706 285° West 417 480 34,000  Level FlightAware ADS-B
Fri 08:08:31 53.1021 2.0695 285° West 480 552 34,000  Level FlightAware UK
Fri 08:08:38 53.1052 2.0499 285° West 417 480 34,000  Level FlightAware ADS-B
Fri 08:09:16 53.1262 1.9285 286° West 418 481 34,000  Level FlightAware ADS-B
Fri 08:09:48 53.1438 1.8262 286° West 419 482 34,000  Level FlightAware ADS-B
Fri 08:10:43 53.1720 1.6623 286° West 480 552 34,000  Level FlightAware UK
Fri 08:10:46 53.1730 1.6520 286° West 420 483 34,000  Level FlightAware ADS-B
Fri 08:11:19 53.1909 1.5498 286° West 480 552 34,000  Level FlightAware UK
Fri 08:11:20 53.1910 1.5460 286° West 420 483 34,000  Level FlightAware ADS-B
Fri 08:11:29 53.1952 1.5231 287° West 421 484 34,000  Level FlightAware ADS-B
Fri 08:12:05 53.2115 1.4263 286° West 421 484 34,000  Level FlightAware ADS-B
Fri 08:12:35 53.2277 1.3294 286° West 423 487 34,000  Level FlightAware ADS-B
Fri 08:13:09 53.2482 1.2055 286° West 424 488 34,000  Level FlightAware ADS-B
Fri 08:13:42 53.2655 1.1005 285° West 424 488 34,000  Level FlightAware ADS-B
Fri 08:14:15 53.2825 0.9961 285° West 425 489 34,000  Level FlightAware ADS-B
Fri 08:14:48 53.2972 0.9068 285° West 426 490 34,000  Level FlightAware ADS-B
Fri 08:15:26 53.3189 0.7723 285° West 426 490 34,000  Level FlightAware ADS-B
Fri 08:15:34 53.3228 0.7479 285° West 424 488 34,000  Level FlightAware ADS-B
Fri 08:15:51 53.3315 0.6936 285° West 424 488 34,000  Level FlightAware ADS-B
Fri 08:16:22 53.3473 0.5950 285° West 424 488 34,000  Level FlightAware ADS-B
Fri 08:16:42 53.3573 0.5321 285° West 424 488 34,000  Level FlightAware ADS-B
Fri 08:17:18 53.3756 0.4165 285° West 426 490 34,000  Level FlightAware ADS-B
Fri 08:17:48 53.3907 0.3203 285° West 427 491 34,000  Level FlightAware ADS-B
Fri 08:18:03 53.3979 0.2744 285° West 425 489 34,000  Level FlightAware ADS-B
Fri 08:18:28 53.4104 0.1944 285° West 426 490 34,000  Level FlightAware ADS-B
Fri 08:18:40 53.4165 0.1551 285° West 426 490 34,000  Level FlightAware ADS-B
Fri 08:19:10 53.4315 0.0581 285° West 429 494 34,000  Level FlightAware ADS-B
Fri 08:19:13 53.4075 0.2129 105° East 429 494 34,000  Level FlightAware ADS-B
Fri 08:19:33 53.4425 -0.0138 285° West 427 491 34,000  Level FlightAware ADS-B
Fri 08:20:03 53.4574 -0.1111 284° West 429 494 34,000  Level FlightAware ADS-B
Fri 08:20:33 53.4717 -0.2054 284° West 429 494 34,000  Level FlightAware ADS-B
Fri 08:21:03 53.4864 -0.3020 284° West 427 491 34,000  Level FlightAware ADS-B
Fri 08:21:14 53.4921 -0.3400 284° West 427 491 34,000  Level FlightAware ADS-B
Fri 08:21:26 53.4969 -0.3715 284° West 429 494 34,000  Level FlightAware ADS-B
Fri 08:21:36 53.5027 -0.4102 284° West 430 495 34,000  Level FlightAware ADS-B
Fri 08:21:46 53.5070 -0.4392 284° West 430 495 34,000  Level FlightAware ADS-B
Fri 08:22:17 53.5212 -0.5341 284° West 430 495 34,000  Level FlightAware ADS-B
Fri 08:22:47 53.5365 -0.6379 284° West 431 496 34,000  Level FlightAware ADS-B
Fri 08:23:26 53.5553 -0.7653 284° West 432 497 34,000  Level FlightAware ADS-B
Fri 08:23:40 53.5620 -0.8111 284° West 430 495 34,000  Level FlightAware ADS-B
Fri 08:24:14 53.5779 -0.9207 284° West 432 497 34,000  Level FlightAware ADS-B
Fri 08:24:47 53.5936 -1.0294 284° West 432 497 34,000  Level FlightAware ADS-B
Fri 08:25:17 53.6071 -1.1230 284° West 432 497 34,000  Level FlightAware ADS-B
Fri 08:25:48 53.6220 -1.2278 284° West 433 498 34,000  Level FlightAware ADS-B
Fri 08:26:19 53.6364 -1.3297 283° West 433 498 34,000  Level FlightAware ADS-B
Fri 08:26:53 53.6520 -1.4402 283° West 434 499 34,000  Level FlightAware ADS-B
Fri 08:27:28 53.6681 -1.5556 283° West 434 499 34,000  Level FlightAware ADS-B
Fri 08:27:59 53.6821 -1.6563 283° West 433 498 34,000  Level FlightAware ADS-B
Fri 08:28:29 53.6957 -1.7551 283° West 433 498 34,000  Level FlightAware ADS-B
Fri 08:28:59 53.7083 -1.8468 283° West 434 499 34,000  Level FlightAware ADS-B (EGCW)
Fri 08:29:29 53.7226 -1.9524 283° West 434 499 34,000  Level FlightAware ADS-B
Fri 08:30:02 53.7372 -2.0605 283° West 435 501 34,000  Level FlightAware ADS-B
Fri 08:30:32 53.7504 -2.1588 283° West 435 501 34,000  Level FlightAware ADS-B
Fri 08:31:05 53.7646 -2.2660 283° West 436 502 34,000  Level FlightAware ADS-B
Fri 08:31:35 53.7782 -2.3687 283° West 437 503 34,000  Level FlightAware ADS-B
Fri 08:31:42 53.7805 -2.3865 282° West 437 503 34,000  Level FlightAware ADS-B (EGCW)
Fri 08:32:12 53.7945 -2.4932 283° West 436 502 34,000  Level FlightAware ADS-B
Fri 08:32:22 53.7988 -2.5264 282° West 436 502 34,000  Level FlightAware ADS-B
Fri 08:32:32 53.8032 -2.5600 282° West 436 502 34,000  Level FlightAware ADS-B
Fri 08:32:40 53.8062 -2.5830 282° West 437 503 34,000  Level FlightAware ADS-B (EGCW)
Fri 08:33:00 53.8153 -2.6540 282° West 436 502 34,000  Level FlightAware ADS-B
Fri 08:33:12 53.8205 -2.6937 282° West 437 503 34,000  Level FlightAware ADS-B
Fri 08:33:42 53.8332 -2.7925 282° West 439 505 34,000  Level FlightAware ADS-B
Fri 08:34:12 53.8440 -2.8778 282° West 439 505 34,000  Level FlightAware ADS-B
Fri 08:34:43 53.8584 -2.9914 282° West 440 506 34,000  Level FlightAware ADS-B
Fri 08:35:13 53.8710 -3.0922 282° West 441 507 34,000  Level FlightAware ADS-B
Fri 08:35:43 53.8827 -3.1856 282° West 441 507 34,000  Level FlightAware ADS-B
Fri 08:36:14 53.8969 -3.3003 282° West 441 507 34,000  Level FlightAware ADS-B
Fri 08:36:44 53.9090 -3.3989 282° West 442 509 34,000  Level FlightAware ADS-B
Fri 08:37:17 53.9232 -3.5161 282° West 443 510 34,000  Level FlightAware ADS-B (EGCW)
Fri 08:37:25 53.9269 -3.5466 282° West 442 509 34,000  Level FlightAware ADS-B
Fri 08:37:58 53.9390 -3.6471 282° West 444 511 34,000  Level FlightAware ADS-B
Fri 08:38:29 53.9512 -3.7497 281° West 443 510 34,000  Level FlightAware ADS-B
Fri 08:39:09 53.9760 -3.8890 287° West 444 511 34,000  Level FlightAware ADS-B
Fri 08:39:28 53.9913 -3.9550 292° West 445 512 34,000  Level FlightAware ADS-B
Fri 08:39:58 54.0127 -4.0453 292° West 446 513 34,000  Level FlightAware ADS-B
Fri 08:40:47 54.0438 -4.1765 292° West 446 513 34,000  Level FlightAware ADS-B
Fri 08:41:18 54.0675 -4.2771 292° West 446 513 34,000  Level FlightAware ADS-B
Fri 08:41:49 54.0921 -4.3822 292° West 446 513 34,000  Level FlightAware ADS-B
Fri 08:42:28 54.1250 -4.5238 292° West 446 513 34,000  Level FlightAware ADS-B
Fri 08:42:59 54.1480 -4.6226 292° West 446 513 34,000  Level FlightAware ADS-B
Fri 08:43:29 54.1724 -4.7284 292° West 447 514 34,000  Level FlightAware ADS-B
Fri 08:44:00 54.1971 -4.8363 291° West 446 513 34,000  Level FlightAware ADS-B
Fri 08:44:31 54.2180 -4.9280 291° West 444 511 34,000  Level FlightAware ADS-B
Fri 08:45:01 54.2425 -5.0356 291° West 444 511 34,000  Level FlightAware ADS-B
Fri 08:45:36 54.2669 -5.1436 291° West 444 511 34,000  Level FlightAware ADS-B
Fri 08:46:06 54.2581 -5.1044 111° Southeast 444 511 34,000  Level FlightAware ADS-B
Fri 08:46:37 54.3121 -5.3453 291° West 443 510 34,000  Level FlightAware ADS-B
Fri 08:47:11 54.3372 -5.4577 291° West 443 510 34,000  Level FlightAware ADS-B
Fri 08:47:15 54.3306 -5.4280 111° Southeast 440 506 34,000  Level FlightAware ADS-B
Fri 08:47:23 54.3360 -5.4522 291° West 440 506 34,000  Level FlightAware ADS-B
Fri 08:47:53 54.3680 -5.5950 291° West 442 509 34,000  Level FlightAware ADS-B
Fri 08:48:03 54.3751 -5.6289 290° West 443 510 34,000  Level FlightAware ADS-B
Fri 08:48:21 54.3795 -5.6489 291° West 441 507 34,000  Level FlightAware ADS-B
Fri 08:48:32 54.3849 -5.6735 291° West 441 507 34,000  Level FlightAware ADS-B
Fri 08:49:04 54.4193 -5.8307 291° West 444 511 34,000  Level FlightAware ADS-B
Fri 08:49:34 54.4414 -5.9323 291° West 445 512 34,000  Level FlightAware ADS-B
Fri 08:50:06 54.4639 -6.0362 290° West 446 513 34,000  Level FlightAware ADS-B
Fri 08:50:09 54.4498 -5.9710 110° East 443 510 34,000  Level FlightAware ADS-B
Fri 08:50:40 54.4864 -6.1402 290° West 447 514 34,000  Level FlightAware ADS-B
Fri 08:51:08 54.4940 -6.1761 290° West 444 511 34,000  Level FlightAware ADS-B
Fri 08:51:13 54.4975 -6.1920 290° West 444 511 34,000  Level FlightAware ADS-B
Fri 08:51:51 54.5383 -6.3836 290° West 448 516 34,000  Level FlightAware ADS-B
Fri 08:52:22 54.5593 -6.4827 290° West 449 517 34,000  Level FlightAware ADS-B
Fri 08:52:31 54.5506 -6.4415 110° East 446 513 34,000  Level FlightAware ADS-B
Fri 08:52:41 54.5586 -6.4793 290° West 446 513 34,000  Level FlightAware ADS-B
Fri 08:52:52 54.5699 -6.5329 290° West 446 513 34,000  Level FlightAware ADS-B
Fri 08:53:15 54.5853 -6.6057 290° West 447 514 34,000  Level FlightAware ADS-B
Fri 08:53:53 54.6247 -6.7945 290° West 450 518 34,000  Level FlightAware ADS-B
Fri 08:54:27 54.6489 -6.9111 290° West 451 519 34,000  Level FlightAware ADS-B
Fri 08:54:57 54.6687 -7.0069 290° West 452 520 34,000  Level FlightAware ADS-B
Fri 08:55:29 54.6908 -7.1149 290° West 453 521 34,000  Level FlightAware ADS-B
Fri 08:56:11 54.7200 -7.2590 289° West 452 520 34,000  Level FlightAware ADS-B
Fri 08:56:41 54.7410 -7.3630 289° West 453 521 34,000  Level FlightAware ADS-B
Fri 08:57:19 54.7650 -7.4800 290° West 454 522 34,000  Level FlightAware ADS-B
Fri 08:57:48 54.7860 -7.5840 289° West 453 521 34,000  Level FlightAware ADS-B
Fri 08:58:25 54.8110 -7.7140 289° West 455 524 34,000  Level FlightAware ADS-B
Fri 08:59:02 54.8388 -7.8515 289° West 480 552 34,000  Level FlightAware UK
Fri 08:59:02 54.8370 -7.8410 289° West 454 522 34,000  Level FlightAware ADS-B
Fri 08:59:32 54.8591 -7.9548 289° West 480 552 34,000  Level FlightAware UK
Fri 08:59:38 54.8620 -7.9680 289° West 455 524 34,000  Level FlightAware ADS-B
Fri 09:00:09 54.8810 -8.0690 288° West 456 525 34,000  Level FlightAware ADS-B
Fri 09:00:55 54.9130 -8.2330 289° West 456 525 34,000  Level FlightAware ADS-B
Fri 09:01:32 54.9396 -8.3695 289° West 480 552 34,000  Level FlightAware UK
Fri 09:01:32 54.9370 -8.3580 289° West 455 524 34,000 -200 Level FlightAware ADS-B
Fri 09:02:02 54.9594 -8.4735 289° West 478 550 33,900  Descending FlightAware UK
Fri 09:02:05 54.9600 -8.4740 289° West 455 524 34,000 158 Climbing FlightAware ADS-B
Fri 09:02:40 54.9810 -8.5880 288° West 455 524 34,000  Level FlightAware ADS-B
Fri 09:03:15 55.0040 -8.7070 289° West 455 524 34,000  Level FlightAware ADS-B
Fri 09:03:48 55.0280 -8.8360 288° West 452 520 34,000  Level FlightAware ADS-B
Fri 09:04:20 55.0480 -8.9440 288° West 452 520 34,000  Level FlightAware ADS-B
Fri 09:05:00 55.0740 -9.0840 288° West 453 521 34,000  Level FlightAware ADS-B
Fri 09:05:31 55.0930 -9.1870 288° West 455 524 34,000  Level FlightAware ADS-B
Fri 09:06:11 55.1170 -9.3150 288° West 456 525 34,000  Level FlightAware ADS-B
Fri 09:06:45 55.1420 -9.4530 288° West 464 534 34,000  Level FlightAware ADS-B
Fri 09:07:19 55.1640 -9.5760 287° West 466 536 34,000  Level FlightAware ADS-B
Fri 09:07:49 55.1840 -9.6880 287° West 468 539 34,000  Level FlightAware ADS-B
Fri 09:08:29 55.2090 -9.8310 287° West 470 541 34,000  Level FlightAware ADS-B
Fri 09:09:05 55.2330 -9.9610 288° West 471 542 34,000  Level FlightAware ADS-B
Fri 09:09:50 55.2590 -10.1100 287° West 473 544 34,000  Level FlightAware ADS-B
Fri 09:10:27 55.2780 -10.2260 286° West 473 544 34,000 171 Level FlightAware ADS-B
Fri 09:11:00 55.3070 -10.3860 288° West 475 547 34,200 545 Climbing FlightAware ADS-B
Fri 09:11:33 55.3220 -10.4790 286° West 474 545 34,600 923 Climbing FlightAware ADS-B
Fri 09:12:05 55.3470 -10.6230 287° West 473 544 35,200 971 Climbing FlightAware ADS-B
Fri 09:12:41 55.3690 -10.7550 286° West 472 543 35,700 686 Climbing FlightAware ADS-B
Fri 09:13:15 55.3910 -10.8810 287° West 471 542 36,000 214 Climbing FlightAware ADS-B
Fri 09:14:05 55.4200 -11.0570 286° West 470 541 36,000  Level FlightAware ADS-B
Fri 09:14:40 55.4430 -11.1960 286° West 470 541 36,000  Level FlightAware ADS-B
Fri 09:15:17 55.4640 -11.3290 286° West 470 541 36,000  Level FlightAware ADS-B
Fri 09:15:52 55.4860 -11.4600 287° West 469 540 36,000  Level FlightAware ADS-B
Fri 09:16:33 55.5090 -11.6040 286° West 467 537 36,000  Level FlightAware ADS-B
Fri 09:17:08 55.5300 -11.7350 286° West 466 536 36,000  Level FlightAware ADS-B
Fri 09:17:52 55.5560 -11.9000 286° West 466 536 36,000  Level FlightAware ADS-B
Fri 09:18:37 55.5760 -12.0340 285° West 465 535 36,000  Level FlightAware ADS-B
Fri 09:19:16 55.6000 -12.1790 286° West 465 535 36,000  Level FlightAware ADS-B
Fri 09:19:54 55.6160 -12.2980 283° West 465 535 36,000  Level FlightAware ADS-B
Fri 09:20:30 55.6320 -12.4120 284° West 465 535 36,000  Level FlightAware ADS-B
Fri 09:21:05 55.6640 -12.6030 287° West 464 534 36,000  Level FlightAware ADS-B
Fri 09:21:40 55.6840 -12.7310 286° West 464 534 36,000  Level FlightAware ADS-B
Fri 09:22:18 55.6990 -12.8510 283° West 464 534 36,000  Level FlightAware ADS-B
Fri 09:22:55 55.7250 -13.0110 286° West 465 535 36,000  Level FlightAware ADS-B
Fri 09:23:35 55.7460 -13.1500 285° West 465 535 36,000  Level FlightAware ADS-B
Fri 09:24:16 55.7680 -13.3040 284° West 464 534 36,000  Level FlightAware ADS-B
Fri 09:24:52 55.7830 -13.4090 284° West 463 533 36,000  Level FlightAware ADS-B
Fri 09:25:29 55.7990 -13.5260 284° West 463 533 36,000  Level FlightAware ADS-B
Fri 09:26:05 55.8150 -13.6390 284° West 463 533 36,000  Level FlightAware ADS-B
Fri 09:26:41 55.8310 -13.7520 284° West 463 533 36,000  Level FlightAware ADS-B
Fri 09:27:17 55.8470 -13.8650 284° West 463 533 36,000  Level FlightAware ADS-B
Fri 09:27:53 55.8630 -13.9790 284° West 463 533 36,000  Level FlightAware ADS-B
Fri 09:28:31 55.8800 -14.0980 284° West 463 533 36,000  Level FlightAware ADS-B
Fri 09:29:07 55.8950 -14.2120 283° West 463 533 36,000  Level FlightAware ADS-B
Fri 09:29:44 55.9120 -14.3280 285° West 463 533 36,000  Level FlightAware ADS-B
Fri 09:30:18 55.9270 -14.4350 284° West 463 533 36,000  Level FlightAware ADS-B
Fri 09:30:54 55.9420 -14.5490 283° West 463 533 36,000  Level FlightAware ADS-B
Fri 09:31:30 55.9580 -14.6630 284° West 463 533 36,000  Level FlightAware ADS-B
Fri 09:32:07 55.9750 -14.7790 285° West 463 533 36,000  Level FlightAware ADS-B
Fri 09:32:43 55.9900 -14.8930 283° West 463 533 36,000  Level FlightAware ADS-B
Fri 09:33:08 56.0010 -14.9720 284° West 463 533 36,000  Level FlightAware ADS-B
Fri 09:33:45 56.0180 -15.0890 285° West 463 533 36,000  Level FlightAware ADS-B
Fri 09:34:33 56.0390 -15.2410 284° West 463 533 36,000  Level FlightAware ADS-B
Fri 09:37:00 56.1141 -15.7512 285° West  Level Estimated
Fri 09:38:00 56.1441 -15.9600 285° West  Level Estimated
Fri 09:39:00 56.1739 -16.1692 284° West  Level Estimated
Fri 09:40:00 56.2032 -16.3787 284° West  Level Estimated
Fri 09:41:00 56.2322 -16.5885 284° West  Level Estimated
Fri 09:42:00 56.2608 -16.7986 284° West  Level Estimated
Fri 09:43:00 56.2891 -17.0090 284° West  Level Estimated
Fri 09:44:00 56.3170 -17.2197 284° West  Level Estimated
Fri 09:45:00 56.3446 -17.4307 283° West  Level Estimated
Fri 09:46:00 56.3718 -17.6421 283° West  Level Estimated
Fri 09:47:00 56.3993 -17.8594 283° West  Level Estimated
Fri 09:48:00 56.4265 -18.0771 283° West  Level Estimated
Fri 09:49:00 56.4533 -18.2951 283° West  Level Estimated
Fri 09:50:00 56.4797 -18.5134 282° West  Level Estimated
Fri 09:51:00 56.5058 -18.7320 282° West  Level Estimated
Fri 09:52:00 56.5314 -18.9509 282° West  Level Estimated
Fri 09:53:00 56.5567 -19.1701 282° West  Level Estimated
Fri 09:54:00 56.5816 -19.3896 282° West  Level Estimated
Fri 09:55:00 56.6060 -19.6094 282° West  Level Estimated
Fri 09:56:00 56.6301 -19.8294 281° West  Level Estimated
Fri 09:56:22 57.0000 -20.0000 285° West 436 502 36,000  Level ETMS Enhanced Traffic Management System
Fri 09:57:00 56.6539 -20.0497 281° West  Level Estimated
Fri 09:58:00 56.6767 -20.2658 281° West  Level Estimated
Fri 09:59:00 56.6992 -20.4822 281° West  Level Estimated
Fri 10:00:00 56.7213 -20.6988 281° West  Level Estimated
Fri 10:01:00 56.7430 -20.9156 280° West  Level Estimated
Fri 10:02:00 57.1785 -21.2990 284° West 436 502 36,000  Level FlightAware Transoceanic
Fri 10:03:00 57.2069 -21.5167 283° West 436 502 36,000  Level FlightAware Transoceanic
Fri 10:04:00 57.2350 -21.7347 283° West 436 502 36,000  Level FlightAware Transoceanic
Fri 10:05:00 57.2627 -21.9531 283° West 436 502 36,000  Level FlightAware Transoceanic
Fri 10:06:00 57.2900 -22.1718 283° West 436 502 36,000  Level FlightAware Transoceanic
Fri 10:07:00 57.3169 -22.3908 283° West 436 502 36,000  Level FlightAware Transoceanic
Fri 10:08:00 57.3434 -22.6101 283° West 436 502 36,000  Level FlightAware Transoceanic
Fri 10:09:00 57.3696 -22.8298 282° West 436 502 36,000  Level FlightAware Transoceanic
Fri 10:10:00 57.3954 -23.0497 282° West 436 502 36,000  Level FlightAware Transoceanic
Fri 10:11:00 57.4208 -23.2700 282° West 436 502 36,000  Level FlightAware Transoceanic
Fri 10:12:00 57.4458 -23.4905 282° West 436 502 36,000  Level FlightAware Transoceanic
Fri 10:13:00 57.4704 -23.7114 282° West 436 502 36,000  Level FlightAware Transoceanic
Fri 10:14:00 57.4946 -23.9326 281° West 436 502 36,000  Level FlightAware Transoceanic
Fri 10:15:00 57.5185 -24.1540 281° West 436 502 36,000  Level FlightAware Transoceanic
Fri 10:16:00 57.5419 -24.3757 281° West 436 502 36,000  Level FlightAware Transoceanic
Fri 10:17:00 57.5650 -24.5978 281° West 436 502 36,000  Level FlightAware Transoceanic
Fri 10:18:00 57.5877 -24.8201 281° West 436 502 36,000  Level FlightAware Transoceanic
Fri 10:19:00 57.6100 -25.0427 280° West 436 502 36,000  Level FlightAware Transoceanic
Fri 10:20:00 57.6319 -25.2655 280° West 436 502 36,000  Level FlightAware Transoceanic
Fri 10:21:00 57.6534 -25.4886 280° West 436 502 36,000  Level FlightAware Transoceanic
Fri 10:22:00 57.6745 -25.7120 280° West 436 502 36,000  Level FlightAware Transoceanic
Fri 10:23:00 57.6952 -25.9356 280° West 436 502 36,000  Level FlightAware Transoceanic
Fri 10:24:00 57.7155 -26.1595 280° West 436 502 36,000  Level FlightAware Transoceanic
Fri 10:25:00 57.7355 -26.3836 279° West 436 502 36,000  Level FlightAware Transoceanic
Fri 10:26:00 57.7550 -26.6080 279° West 436 502 36,000  Level FlightAware Transoceanic
Fri 10:27:00 57.7742 -26.8327 279° West 436 502 36,000  Level FlightAware Transoceanic
Fri 10:28:00 57.7929 -27.0575 279° West 436 502 36,000  Level FlightAware Transoceanic
Fri 10:29:00 57.8112 -27.2826 279° West 436 502 36,000  Level FlightAware Transoceanic
Fri 10:30:00 57.8292 -27.5079 278° West 436 502 36,000  Level FlightAware Transoceanic
Fri 10:31:00 57.8467 -27.7335 278° West 436 502 36,000  Level FlightAware Transoceanic
Fri 10:32:00 57.8638 -27.9592 278° West 436 502 36,000  Level FlightAware Transoceanic
Fri 10:33:00 57.8806 -28.1852 278° West 436 502 36,000  Level FlightAware Transoceanic
Fri 10:34:00 57.8969 -28.4114 278° West 436 502 36,000  Level FlightAware Transoceanic
Fri 10:35:00 57.9129 -28.6377 277° West 436 502 36,000  Level FlightAware Transoceanic
Fri 10:36:00 57.9284 -28.8643 277° West 436 502 36,000  Level FlightAware Transoceanic
Fri 10:37:00 57.9435 -29.0911 277° West 436 502 36,000  Level FlightAware Transoceanic
Fri 10:38:00 57.9582 -29.3180 277° West 436 502 36,000  Level FlightAware Transoceanic
Fri 10:39:00 57.9726 -29.5452 277° West 436 502 36,000  Level FlightAware Transoceanic
Fri 10:40:00 57.9865 -29.7725 276° West 436 502 36,000  Level FlightAware Transoceanic
Fri 10:41:00 58.0000 -29.9992 276° West  Level FlightAware Approximate
Fri 10:42:00 58.0117 -30.2264 276° West  Level FlightAware Approximate
Fri 10:43:00 58.0087 -30.2261 274° West  Level FlightAware Approximate
Fri 10:44:00 58.0170 -30.4538 274° West  Level FlightAware Approximate
Fri 10:45:00 58.0250 -30.6817 274° West  Level FlightAware Approximate
Fri 10:46:00 58.0325 -30.9096 274° West  Level FlightAware Approximate
Fri 10:47:00 58.0396 -31.1376 273° West  Level FlightAware Approximate
Fri 10:48:00 58.0463 -31.3658 273° West  Level FlightAware Approximate
Fri 10:49:00 58.0526 -31.5940 273° West  Level FlightAware Approximate
Fri 10:50:00 58.0585 -31.8223 273° West  Level FlightAware Approximate
Fri 10:51:00 58.0640 -32.0506 273° West  Level FlightAware Approximate
Fri 10:52:00 58.0691 -32.2790 273° West  Level FlightAware Approximate
Fri 10:53:00 58.0738 -32.5075 272° West  Level FlightAware Approximate
Fri 10:54:00 58.0780 -32.7360 272° West  Level FlightAware Approximate
Fri 10:55:00 58.0819 -32.9646 272° West  Level FlightAware Approximate
Fri 10:56:00 58.0853 -33.1933 272° West  Level FlightAware Approximate
Fri 10:57:00 58.0883 -33.4220 272° West  Level FlightAware Approximate
Fri 10:58:00 58.0910 -33.6507 271° West  Level FlightAware Approximate
Fri 10:59:00 58.0932 -33.8794 271° West  Level FlightAware Approximate
Fri 11:00:00 58.0950 -34.1082 271° West  Level FlightAware Approximate
Fri 11:01:00 58.0964 -34.3370 271° West  Level FlightAware Approximate
Fri 11:02:00 58.0973 -34.5658 271° West  Level FlightAware Approximate
Fri 11:03:00 58.0979 -34.7946 270° West  Level FlightAware Approximate
Fri 11:04:00 58.0981 -35.0234 270° West  Level FlightAware Approximate
Fri 11:05:00 58.0978 -35.2523 270° West  Level FlightAware Approximate
Fri 11:06:00 58.0972 -35.4811 270° West  Level FlightAware Approximate
Fri 11:07:00 58.0961 -35.7099 270° West  Level FlightAware Approximate
Fri 11:08:00 58.0946 -35.9387 269° West  Level FlightAware Approximate
Fri 11:09:00 58.0927 -36.1674 269° West  Level FlightAware Approximate
Fri 11:10:00 58.0904 -36.3962 269° West  Level FlightAware Approximate
Fri 11:11:00 58.0877 -36.6249 269° West  Level FlightAware Approximate
Fri 11:11:23 58.0833 -36.7833 268° West 460 529 36,000  Level Gander Center
Fri 11:12:00 58.0846 -36.8536 269° West  Level FlightAware Approximate
Fri 11:12:23 58.0833 -37.0167 270° West 460 529 36,000  Level Gander Center
Fri 11:13:00 58.0811 -37.0822 268° West  Level FlightAware Approximate
Fri 11:13:23 58.0667 -37.2500 262° West 460 529 36,000  Level Gander Center
Fri 11:14:00 58.0772 -37.3108 268° West  Level FlightAware Approximate
Fri 11:14:23 58.0667 -37.4833 270° West 460 529 36,000  Level Gander Center
Fri 11:15:00 58.0728 -37.5393 268° West  Level FlightAware Approximate
Fri 11:15:23 58.0667 -37.7167 270° West 460 529 36,000  Level Gander Center
Fri 11:16:00 58.0681 -37.7678 268° West  Level FlightAware Approximate
Fri 11:16:23 58.0667 -37.9833 270° West 460 529 36,000  Level Gander Center
Fri 11:17:23 58.0667 -38.2167 270° West 460 529 36,000  Level Gander Center
Fri 11:18:23 58.0500 -38.4500 262° West 460 529 36,000  Level Gander Center
Fri 11:19:23 58.0500 -38.6833 270° West 460 529 36,000  Level Gander Center
Fri 11:20:23 58.0500 -38.9167 270° West 460 529 36,000  Level Gander Center
Fri 11:21:23 58.0333 -39.1500 262° West 450 518 36,000  Level Gander Center
Fri 11:22:23 58.0333 -39.3833 270° West 460 529 36,000  Level Gander Center
Fri 11:23:23 58.0167 -39.6167 262° West 450 518 36,000  Level Gander Center
Fri 11:24:23 58.0000 -39.8667 263° West 450 518 36,000  Level Gander Center
Fri 11:25:23 57.9833 -40.1000 262° West 450 518 36,000  Level Gander Center
Fri 11:26:23 57.9833 -40.3333 270° West 450 518 36,000  Level Gander Center
Fri 11:27:23 57.9667 -40.5667 262° West 450 518 36,000  Level Gander Center
Fri 11:28:23 57.9500 -40.8000 262° West 460 529 36,000  Level Gander Center
Fri 11:29:23 57.9333 -41.0333 262° West 450 518 36,000  Level Gander Center
Fri 11:30:23 57.9167 -41.2667 262° West 460 529 36,000  Level Gander Center
Fri 11:31:23 57.9000 -41.5000 262° West 460 529 36,000  Level Gander Center
Fri 11:32:23 57.8833 -41.7333 262° West 460 529 36,000  Level Gander Center
Fri 11:33:23 57.8667 -41.9833 263° West 460 529 36,000  Level Gander Center
Fri 11:34:23 57.8500 -42.2167 262° West 460 529 36,000  Level Gander Center
Fri 11:35:23 57.8333 -42.4500 262° West 460 529 36,000  Level Gander Center
Fri 11:36:23 57.8167 -42.6833 262° West 460 529 36,000  Level Gander Center
Fri 11:37:23 57.7833 -42.9167 255° West 470 541 36,000  Level Gander Center
Fri 11:38:23 57.7667 -43.1500 262° West 470 541 36,000  Level Gander Center
Fri 11:39:23 57.7500 -43.3833 262° West 470 541 36,000  Level Gander Center
Fri 11:40:23 57.7333 -43.6167 262° West 470 541 36,000  Level Gander Center
Fri 11:41:23 57.7167 -43.8500 262° West 470 541 36,000  Level Gander Center
Fri 11:42:23 57.7000 -44.1167 263° West 470 541 36,000  Level Gander Center
Fri 11:43:23 57.6833 -44.3500 262° West 470 541 36,000  Level Gander Center
Fri 11:44:23 57.6500 -44.5833 255° West 470 541 36,000  Level Gander Center
Fri 11:45:23 57.6167 -44.8167 255° West 460 529 36,000  Level Gander Center
Fri 11:46:23 57.6000 -45.0500 263° West 460 529 36,000  Level Gander Center
Fri 11:47:23 57.5833 -45.2833 263° West 460 529 36,000  Level Gander Center
Fri 11:48:23 57.5500 -45.5167 255° West 460 529 36,000  Level Gander Center
Fri 11:49:23 57.5333 -45.7500 263° West 450 518 36,000  Level Gander Center
Fri 11:50:23 57.5167 -45.9833 263° West 450 518 36,000  Level Gander Center
Fri 11:51:23 57.4833 -46.2167 255° West 450 518 36,000  Level Gander Center
Fri 11:52:23 57.4667 -46.4333 262° West 450 518 36,000  Level Gander Center
Fri 11:53:23 57.4333 -46.6333 253° West 450 518 36,000  Level Gander Center
Fri 11:54:23 57.4167 -46.8667 263° West 450 518 36,000  Level Gander Center
Fri 11:55:23 57.3833 -47.1000 255° West 450 518 36,000  Level Gander Center
Fri 11:56:23 57.3500 -47.3333 255° West 450 518 36,000  Level Gander Center
Fri 11:57:23 57.3333 -47.5667 263° West 450 518 36,000  Level Gander Center
Fri 11:58:23 57.3000 -47.7833 254° West 460 529 36,000  Level Gander Center
Fri 11:59:23 57.2667 -48.0167 255° West 460 529 36,000  Level Gander Center
Fri 12:00:23 57.2333 -48.2500 255° West 460 529 36,000  Level Gander Center
Fri 12:01:23 57.2000 -48.4833 255° West 460 529 36,000  Level Gander Center
Fri 12:02:23 57.1833 -48.7000 262° West 460 529 36,000  Level Gander Center
Fri 12:03:23 57.1500 -48.9333 255° West 460 529 36,000  Level Gander Center
Fri 12:04:23 57.1167 -49.1667 255° West 460 529 36,000  Level Gander Center
Fri 12:05:23 57.1000 -49.3833 262° West 460 529 36,000  Level Gander Center
Fri 12:06:23 57.0667 -49.6167 255° West 460 529 36,000  Level Gander Center
Fri 12:07:23 57.0333 -49.8333 254° West 460 529 36,000  Level Gander Center
Fri 12:08:23 57.0000 -50.0667 255° West 460 529 36,000  Level Gander Center
Fri 12:09:23 56.9500 -50.2667 245° Southwest 460 529 36,000  Level Gander Center
Fri 12:11:00 56.9009 -50.5353 252° West  Level FlightAware Approximate
Fri 12:18:00 56.6231 -51.9880 251° West  Level FlightAware Approximate
Fri 12:19:00 56.5820 -52.1937 250° West  Level FlightAware Approximate
Fri 12:20:00 56.5406 -52.3990 250° West  Level FlightAware Approximate
Fri 12:21:00 56.4990 -52.6040 250° West  Level FlightAware Approximate
Fri 12:21:23 56.4500 -52.8333 249° West 450 518 36,000  Level Gander Center
Fri 12:22:00 56.4573 -52.8086 250° West  Level FlightAware Approximate
Fri 12:22:23 56.4167 -53.0667 256° West 450 518 36,000  Level Gander Center
Fri 12:23:00 56.4152 -53.0128 250° West  Level FlightAware Approximate
Fri 12:23:23 56.3667 -53.2833 247° West 450 518 36,000  Level Gander Center
Fri 12:24:00 56.3729 -53.2166 249° West  Level FlightAware Approximate
Fri 12:24:23 56.3333 -53.4667 252° West 450 518 36,000  Level Gander Center
Fri 12:25:00 56.3301 -53.4199 249° West  Level FlightAware Approximate
Fri 12:25:23 56.3000 -53.6833 255° West 450 518 36,000  Level Gander Center
Fri 12:26:00 56.2871 -53.6227 249° West  Level FlightAware Approximate
Fri 12:26:23 56.2333 -53.8833 239° Southwest 440 506 36,000  Level Gander Center
Fri 12:27:23 56.2000 -54.1000 255° West 440 506 36,000  Level Gander Center
Fri 12:28:23 56.1500 -54.3167 248° West 450 518 36,000  Level Gander Center
Fri 12:29:23 56.1000 -54.5167 246° West 440 506 36,000  Level Gander Center
Fri 12:31:00 56.0209 -54.8454 247° West  Level FlightAware Approximate
Fri 12:32:23 55.9500 -55.1667 247° West 450 518 36,000  Level Gander Center
Fri 12:33:23 55.9167 -55.3500 252° West 450 518 36,000  Level Gander Center
Fri 12:34:23 55.8667 -55.5333 244° Southwest 440 506 36,000 400 Level Gander Center
Fri 12:35:23 55.8500 -55.7500 262° West 440 506 36,800 500 Climbing Gander Center
Fri 12:36:23 55.8000 -55.9667 248° West 440 506 37,000 350 Climbing Gander Center
Fri 12:37:23 55.7667 -56.1667 254° West 450 518 37,500 400 Climbing Gander Center
Fri 12:38:23 55.7333 -56.3833 255° West 450 518 37,800 250 Climbing Gander Center
Fri 12:39:23 55.7000 -56.6333 257° West 460 529 38,000 100 Climbing Gander Center
Fri 12:40:23 55.6500 -56.8333 246° West 460 529 38,000  Level Gander Center
Fri 12:41:23 55.6167 -57.0500 255° West 460 529 38,000  Level Gander Center
Fri 12:42:23 55.5833 -57.2667 255° West 460 529 38,000  Level Gander Center
Fri 12:43:23 55.5500 -57.4667 254° West 460 529 38,000  Level Gander Center
Fri 12:44:23 55.5167 -57.6833 255° West 460 529 38,000  Level Gander Center
Fri 12:45:23 55.4667 -57.9000 248° West 460 529 38,000  Level Gander Center
Fri 12:46:23 55.4333 -58.1333 256° West 460 529 38,000  Level Gander Center
Fri 12:47:23 55.4000 -58.3333 254° West 460 529 38,000  Level Gander Center
Fri 12:48:23 55.3500 -58.5500 248° West 460 529 38,000  Level Gander Center
Fri 12:49:23 55.3167 -58.7500 254° West 460 529 38,000  Level Gander Center
Fri 12:50:23 55.2667 -59.0000 251° West 450 518 38,000  Level Gander Center
Fri 12:51:23 55.2333 -59.1667 251° West 450 518 38,000  Level Gander Center
Fri 12:52:23 55.1833 -59.4167 251° West 450 518 38,000  Level Gander Center
Fri 12:53:23 55.1500 -59.5833 251° West 450 518 38,000  Level Gander Center
Fri 12:54:23 55.1000 -59.8000 248° West 440 506 38,000  Level Gander Center
Fri 12:55:23 55.0667 -60.0000 254° West 450 518 38,000  Level Gander Center
Fri 12:56:23 55.0333 -60.2000 254° West 450 518 38,000  Level Gander Center
Fri 12:57:23 54.9833 -60.4333 250° West 450 518 38,000  Level Gander Center
Fri 12:58:23 54.9500 -60.6500 255° West 460 529 38,000  Level Gander Center
Fri 12:59:23 54.9000 -60.8500 247° West 460 529 38,000  Level Gander Center
Fri 13:00:23 54.8500 -61.0500 247° West 460 529 38,000  Level Gander Center
Fri 13:01:23 54.8000 -61.2833 250° West 460 529 38,000  Level Gander Center
Fri 13:02:23 54.7667 -61.4833 254° West 470 541 38,000  Level Gander Center
Fri 13:03:23 54.7167 -61.6833 247° West 470 541 38,000  Level Gander Center
Fri 13:04:23 54.6667 -61.8833 247° West 470 541 38,000  Level Gander Center
Fri 13:05:23 54.6333 -62.0833 254° West 470 541 38,000  Level Gander Center
Fri 13:06:23 54.5833 -62.3167 250° West 470 541 38,000  Level Gander Center
Fri 13:07:23 54.5333 -62.5167 247° West 470 541 38,000  Level Gander Center
Fri 13:08:23 54.4667 -62.7500 244° Southwest 470 541 38,000  Level Gander Center
Fri 13:09:23 54.4167 -62.9500 247° West 470 541 38,000  Level Gander Center
Fri 13:10:23 54.3667 -63.1833 250° West 470 541 38,000  Level Gander Center
Fri 13:11:23 54.3333 -63.3667 253° West 470 541 38,000  Level Gander Center
Fri 13:12:23 54.2833 -63.5667 247° West 470 541 38,000  Level Gander Center
Fri 13:13:23 54.2167 -63.8000 244° Southwest 480 552 38,000  Level Gander Center
Fri 13:14:23 54.1667 -64.0000 247° West 480 552 38,000  Level Gander Center
Fri 13:15:23 54.1333 -64.2167 255° West 480 552 38,000  Level Gander Center
Fri 13:16:23 54.0667 -64.4167 240° Southwest 470 541 38,000  Level Gander Center
Fri 13:17:23 54.0167 -64.6167 247° West 470 541 38,000  Level Gander Center
Fri 13:18:23 53.9833 -64.8000 253° West 480 552 38,000  Level Gander Center
Fri 13:19:23 53.9167 -65.0333 244° Southwest 470 541 38,000  Level Gander Center
Fri 13:20:23 53.8667 -65.2167 245° Southwest 470 541 38,000  Level Gander Center
Fri 13:21:23 53.8167 -65.4500 250° West 460 529 38,000  Level Gander Center
Fri 13:22:05 53.7833 -65.5333 236° Southwest 480 552 38,000  Level Montreal Center
Fri 13:23:05 53.7333 -65.7167 245° Southwest 460 529 38,000  Level Montreal Center
Fri 13:24:05 53.6667 -65.9000 239° Southwest 470 541 38,000  Level Montreal Center
Fri 13:25:05 53.6167 -66.1167 249° West 470 541 38,000  Level Montreal Center
Fri 13:26:05 53.5667 -66.3000 245° Southwest 460 529 38,000  Level Montreal Center
Fri 13:27:05 53.5167 -66.5167 249° West 470 541 38,000  Level Montreal Center
Fri 13:28:05 53.4500 -66.7333 243° Southwest 460 529 38,000  Level Montreal Center
Fri 13:29:05 53.4000 -66.9333 247° West 470 541 38,000  Level Montreal Center
Fri 13:30:05 53.3500 -67.1500 249° West 470 541 38,000  Level Montreal Center
Fri 13:31:05 53.3000 -67.3000 241° Southwest 470 541 38,000  Level Montreal Center
Fri 13:32:05 53.2333 -67.5333 245° Southwest 460 529 38,000  Level Montreal Center
Fri 13:33:05 53.1667 -67.7167 239° Southwest 460 529 38,000  Level Montreal Center
Fri 13:34:05 53.1167 -67.9000 246° West 460 529 38,000  Level Montreal Center
Fri 13:35:05 53.0667 -68.1000 247° West 450 518 38,000  Level Montreal Center
Fri 13:36:05 53.0000 -68.2833 239° Southwest 460 529 38,000  Level Montreal Center
Fri 13:37:05 52.9500 -68.5000 249° West 460 529 38,000  Level Montreal Center
Fri 13:38:05 52.9000 -68.6667 244° Southwest 470 541 38,000  Level Montreal Center
Fri 13:39:05 52.8333 -68.8833 243° Southwest 470 541 38,000  Level Montreal Center
Fri 13:40:05 52.7667 -69.0500 237° Southwest 470 541 38,000  Level Montreal Center
Fri 13:41:05 52.7167 -69.2667 249° West 470 541 38,000  Level Montreal Center
Fri 13:42:05 52.6500 -69.4667 241° Southwest 470 541 38,000  Level Montreal Center
Fri 13:43:05 52.6000 -69.6333 244° Southwest 470 541 38,000  Level Montreal Center
Fri 13:44:05 52.5167 -69.8500 238° Southwest 470 541 38,000  Level Montreal Center
Fri 13:45:05 52.4667 -70.0500 248° West 470 541 38,000  Level Montreal Center
Fri 13:46:05 52.4167 -70.2500 248° West 470 541 38,000  Level Montreal Center
Fri 13:47:05 52.3500 -70.4167 237° Southwest 470 541 38,000  Level Montreal Center
Fri 13:48:05 52.3000 -70.6167 248° West 470 541 38,000  Level Montreal Center
Fri 13:49:05 52.2333 -70.8000 239° Southwest 480 552 38,000  Level Montreal Center
Fri 13:50:05 52.1500 -71.0000 236° Southwest 470 541 38,000  Level Montreal Center
Fri 13:51:05 52.1000 -71.2000 248° West 480 552 38,000  Level Montreal Center
Fri 13:52:05 52.0333 -71.3667 237° Southwest 470 541 38,000  Level Montreal Center
Fri 13:53:05 51.9833 -71.5667 248° West 470 541 38,000  Level Montreal Center
Fri 13:54:05 51.9000 -71.7667 236° Southwest 470 541 38,000  Level Montreal Center
Fri 13:55:05 51.8333 -71.9667 242° Southwest 480 552 38,000  Level Montreal Center
Fri 13:56:05 51.7833 -72.1500 246° West 480 552 38,000  Level Montreal Center
Fri 13:57:05 51.7167 -72.3167 237° Southwest 480 552 38,000  Level Montreal Center
Fri 13:58:05 51.6333 -72.5167 236° Southwest 480 552 38,000  Level Montreal Center
Fri 13:59:05 51.5833 -72.7167 248° West 470 541 38,000  Level Montreal Center
Fri 14:00:05 51.5167 -72.8833 237° Southwest 470 541 38,000  Level Montreal Center
Fri 14:01:05 51.4500 -73.0667 240° Southwest 470 541 38,000  Level Montreal Center
Fri 14:02:05 51.3833 -73.2333 237° Southwest 470 541 38,000  Level Montreal Center
Fri 14:03:05 51.3167 -73.4333 242° Southwest 470 541 38,000  Level Montreal Center
Fri 14:04:05 51.2500 -73.6333 242° Southwest 470 541 38,000  Level Montreal Center
Fri 14:05:05 51.1833 -73.7833 235° Southwest 470 541 38,000  Level Montreal Center
Fri 14:06:05 51.1167 -73.9833 242° Southwest 470 541 38,000  Level Montreal Center
Fri 14:07:05 51.0500 -74.1667 240° Southwest 470 541 38,000  Level Montreal Center
Fri 14:08:05 50.9833 -74.3333 238° Southwest 470 541 38,000  Level Montreal Center
Fri 14:09:05 50.9000 -74.5167 234° Southwest 470 541 38,000  Level Montreal Center
Fri 14:10:05 50.8500 -74.7167 248° West 480 552 38,000  Level Montreal Center
Fri 14:11:05 50.7833 -74.8667 235° Southwest 480 552 38,000  Level Montreal Center
Fri 14:12:05 50.7167 -75.0667 242° Southwest 480 552 38,000  Level Montreal Center
Fri 14:13:05 50.6333 -75.2500 234° Southwest 480 552 38,000  Level Montreal Center
Fri 14:14:05 50.5667 -75.4333 240° Southwest 480 552 38,000  Level Montreal Center
Fri 14:15:05 50.5000 -75.6000 238° Southwest 480 552 38,000  Level Montreal Center
Fri 14:16:05 50.4167 -75.7833 235° Southwest 480 552 38,000  Level Montreal Center
Fri 14:17:05 50.3500 -75.9667 240° Southwest 480 552 38,000  Level Montreal Center
Fri 14:18:05 50.2833 -76.1500 240° Southwest 480 552 38,000  Level Montreal Center
Fri 14:19:05 50.2167 -76.3000 235° Southwest 470 541 38,000  Level Montreal Center
Fri 14:20:05 50.1500 -76.4833 240° Southwest 470 541 38,000  Level Montreal Center
Fri 14:21:05 50.0667 -76.6667 235° Southwest 470 541 38,000  Level Montreal Center
Fri 14:22:05 49.9833 -76.8500 235° Southwest 470 541 38,000  Level Montreal Center
Fri 14:23:05 49.9167 -77.0167 238° Southwest 470 541 38,000  Level Montreal Center
Fri 14:24:05 49.8500 -77.2000 241° Southwest 470 541 38,000  Level Montreal Center
Fri 14:25:05 49.7833 -77.3500 235° Southwest 470 541 38,000  Level Montreal Center
Fri 14:26:05 49.7167 -77.5333 241° Southwest 470 541 38,000  Level Montreal Center
Fri 14:27:05 49.6333 -77.7000 232° Southwest 470 541 38,000  Level Montreal Center
Fri 14:28:05 49.5500 -77.8500 229° Southwest 470 541 38,000  Level Montreal Center
Fri 14:29:05 49.4833 -78.0333 241° Southwest 480 552 38,000  Level Montreal Center
Fri 14:30:05 49.4000 -78.1833 230° Southwest 480 552 38,000  Level Montreal Center
Fri 14:31:05 49.3500 -78.4000 251° West 470 541 38,000  Level Montreal Center
Fri 14:32:05 49.2500 -78.5500 224° Southwest 480 552 38,000  Level Montreal Center
Fri 14:33:05 49.1833 -78.7167 239° Southwest 470 541 38,000  Level Montreal Center
Fri 14:34:05 49.1167 -78.8667 236° Southwest 480 552 38,000  Level Montreal Center
Fri 14:35:05 49.0500 -79.0500 241° Southwest 470 541 38,000  Level Montreal Center
Fri 14:36:05 48.9667 -79.2167 233° Southwest 470 541 38,000  Level Montreal Center
Fri 14:37:05 48.8833 -79.4000 235° Southwest 470 541 38,000  Level Montreal Center
Fri 14:38:05 48.8167 -79.5333 233° Southwest 470 541 38,000  Level Montreal Center
Fri 14:39:05 48.7333 -79.6833 230° Southwest 460 529 38,000  Level Montreal Center
Fri 14:40:05 48.6667 -79.8667 241° Southwest 470 541 38,000  Level Montreal Center
Fri 14:41:05 48.5833 -80.0333 233° Southwest 460 529 38,000  Level Montreal Center
Fri 14:42:05 48.5167 -80.1833 236° Southwest 460 529 38,000  Level Montreal Center
Fri 14:43:05 48.4500 -80.3500 239° Southwest 470 541 38,000  Level Montreal Center
Fri 14:44:05 48.3500 -80.5167 228° Southwest 460 529 38,000  Level Montreal Center
Fri 14:45:05 48.2833 -80.6667 236° Southwest 460 529 38,000  Level Montreal Center
Fri 14:50:31 47.8780 -81.5040 236° Southwest 472 543 38,000  Level FlightAware ADS-B
Fri 14:51:08 47.8290 -81.6040 234° Southwest 472 543 38,000  Level FlightAware ADS-B
Fri 14:51:40 47.7880 -81.6870 234° Southwest 471 542 38,000  Level FlightAware ADS-B
Fri 14:52:17 47.7390 -81.7830 233° Southwest 473 544 38,000  Level FlightAware ADS-B
Fri 14:52:51 47.6940 -81.8730 233° Southwest 473 544 38,000  Level FlightAware ADS-B
Fri 14:53:21 47.6560 -81.9500 234° Southwest 473 544 38,000  Level FlightAware ADS-B
Fri 14:54:03 47.6030 -82.0550 233° Southwest 473 544 38,000  Level FlightAware ADS-B
Fri 14:54:35 47.5590 -82.1410 233° Southwest 473 544 38,000  Level FlightAware ADS-B
Fri 14:55:19 47.5000 -82.2560 233° Southwest 472 543 38,000  Level FlightAware ADS-B
Fri 14:55:53 47.4560 -82.3430 233° Southwest 472 543 38,000  Level FlightAware ADS-B
Fri 14:56:28 47.4120 -82.4300 233° Southwest 472 543 38,000  Level FlightAware ADS-B
Fri 14:57:01 47.3690 -82.5140 233° Southwest 471 542 38,000  Level FlightAware ADS-B
Fri 14:57:39 47.3190 -82.6110 233° Southwest 471 542 38,000  Level FlightAware ADS-B
Fri 14:58:14 47.2720 -82.7010 232° Southwest 471 542 38,000  Level FlightAware ADS-B
Fri 14:58:46 47.2300 -82.7820 233° Southwest 471 542 38,000  Level FlightAware ADS-B
Fri 14:59:22 47.1820 -82.8760 233° Southwest 470 541 38,000  Level FlightAware ADS-B
Fri 15:00:00 47.1340 -82.9660 232° Southwest 470 541 38,000  Level FlightAware ADS-B
Fri 15:00:31 47.0910 -83.0480 232° Southwest 470 541 38,000  Level FlightAware ADS-B
Fri 15:01:08 47.0430 -83.1400 233° Southwest 469 540 38,000  Level FlightAware ADS-B
Fri 15:01:43 46.9960 -83.2300 233° Southwest 469 540 38,000  Level FlightAware ADS-B
Fri 15:02:18 46.9490 -83.3180 232° Southwest 469 540 38,000  Level FlightAware ADS-B
Fri 15:02:52 46.9030 -83.4050 232° Southwest 469 540 38,000  Level FlightAware ADS-B
Fri 15:03:28 46.8560 -83.4930 232° Southwest 469 540 38,000  Level FlightAware ADS-B
Fri 15:04:00 46.8130 -83.5740 232° Southwest 469 540 38,000  Level FlightAware ADS-B
Fri 15:04:35 46.7680 -83.6590 232° Southwest 469 540 38,000  Level FlightAware ADS-B
Fri 15:05:12 46.7180 -83.7510 232° Southwest 468 539 38,000  Level FlightAware ADS-B
Fri 15:05:47 46.6720 -83.8370 232° Southwest 467 537 38,000  Level FlightAware ADS-B
Fri 15:06:25 46.6200 -83.9330 232° Southwest 467 537 38,000  Level FlightAware ADS-B
Fri 15:07:01 46.5720 -84.0220 232° Southwest 466 536 38,000  Level FlightAware ADS-B
Fri 15:07:33 46.5310 -84.0980 232° Southwest 465 535 38,000  Level FlightAware ADS-B
Fri 15:08:05 46.4870 -84.1780 231° Southwest 464 534 38,000  Level FlightAware ADS-B
Fri 15:08:45 46.4340 -84.2710 230° Southwest 469 540 38,000  Level FlightAware ADS-B
Fri 15:08:57 46.4130 -84.2950 218° Southwest 479 551 38,000  Level FlightAware ADS-B
Fri 15:09:12 46.3830 -84.3180 208° Southwest 493 567 38,000  Level FlightAware ADS-B
Fri 15:09:24 46.3550 -84.3300 196° South 504 580 38,000  Level FlightAware ADS-B
Fri 15:10:02 46.2680 -84.3610 194° South 501 577 38,000  Level FlightAware ADS-B
Fri 15:10:31 46.2040 -84.3870 196° South 500 575 38,000  Level FlightAware ADS-B
Fri 15:11:01 46.1360 -84.4120 194° South 501 577 38,000 -140 Level FlightAware ADS-B
Fri 15:11:57 46.0100 -84.4560 194° South 502 578 37,800 -522 Descending FlightAware ADS-B
Fri 15:12:33 45.9290 -84.4830 193° South 503 579 37,200 -909 Descending FlightAware ADS-B
Fri 15:13:03 45.8600 -84.5060 193° South 501 577 36,800 -727 Descending FlightAware ADS-B
Fri 15:13:39 45.7810 -84.5330 193° South 497 572 36,400 -649 Descending FlightAware ADS-B
Fri 15:14:17 45.6950 -84.5610 193° South 494 568 36,000 -343 Descending FlightAware ADS-B
Fri 15:14:49 45.6260 -84.5840 193° South 494 568 36,000  Level FlightAware ADS-B
Fri 15:15:25 45.5430 -84.6120 193° South 495 570 36,000  Level FlightAware ADS-B
Fri 15:16:01 45.4650 -84.6390 194° South 496 571 36,000  Level FlightAware ADS-B
Fri 15:16:36 45.3860 -84.6650 193° South 496 571 36,000  Level FlightAware ADS-B
Fri 15:17:12 45.3070 -84.6920 194° South 496 571 36,000  Level FlightAware ADS-B
Fri 15:17:46 45.2310 -84.7170 193° South 496 571 36,000  Level FlightAware ADS-B
Fri 15:18:21 45.1510 -84.7440 193° South 496 571 36,000  Level FlightAware ADS-B
Fri 15:18:55 45.0760 -84.7680 193° South 496 571 36,000  Level FlightAware ADS-B
Fri 15:19:29 45.0010 -84.7930 193° South 496 571 36,000  Level FlightAware ADS-B
Fri 15:20:13 44.9160 -84.8210 193° South 496 571 36,000 -75 Level FlightAware ADS-B
Fri 15:20:49 44.8230 -84.8520 193° South 497 572 35,900 -971 Descending FlightAware ADS-B
Fri 15:21:21 44.7510 -84.8760 193° South 508 585 34,900 -1,714 Descending FlightAware ADS-B
Fri 15:21:59 44.6650 -84.9040 193° South 517 595 33,900 -1,333 Descending FlightAware ADS-B
Fri 15:22:33 44.5840 -84.9300 193° South 514 592 33,300 -1,120 Descending FlightAware ADS-B
Fri 15:23:14 44.4880 -84.9610 193° South 514 592 32,500 -1,000 Descending FlightAware ADS-B
Fri 15:23:51 44.4020 -84.9890 193° South 516 594 32,000 -435 Descending FlightAware ADS-B
Fri 15:24:23 44.3280 -85.0130 193° South 515 593 32,000  Level FlightAware ADS-B
Fri 15:24:59 44.2440 -85.0400 193° South 515 593 32,000  Level FlightAware ADS-B
Fri 15:25:36 44.1570 -85.0680 193° South 515 593 32,000  Level FlightAware ADS-B
Fri 15:26:07 44.0890 -85.0900 193° South 515 593 32,000  Level FlightAware ADS-B
Fri 15:26:45 43.9970 -85.1190 193° South 515 593 32,000  Level FlightAware ADS-B
Fri 15:27:19 43.9190 -85.1440 193° South 515 593 32,000  Level FlightAware ADS-B
Fri 15:27:56 43.8350 -85.1700 193° South 515 593 32,000  Level FlightAware ADS-B
Fri 15:28:31 43.7510 -85.1970 193° South 514 592 32,000  Level FlightAware ADS-B
Fri 15:29:06 43.6700 -85.2230 193° South 514 592 32,000  Level FlightAware ADS-B
Fri 15:29:39 43.5950 -85.2460 193° South 514 592 32,000  Level FlightAware ADS-B
Fri 15:30:15 43.5110 -85.2730 193° South 513 590 32,000  Level FlightAware ADS-B
Fri 15:30:50 43.4310 -85.2980 193° South 513 590 32,000 -667 Level FlightAware ADS-B
Fri 15:31:27 43.3450 -85.3250 193° South 506 582 31,200 -1,652 Descending FlightAware ADS-B
Fri 15:31:59 43.2730 -85.3470 193° South 494 568 30,100 -1,881 Descending FlightAware ADS-B
Fri 15:32:34 43.1960 -85.3710 193° South 478 550 29,100 -1,457 Descending FlightAware ADS-B
Fri 15:33:09 43.1230 -85.3940 193° South 458 527 28,400 -1,521 Descending FlightAware ADS-B
Fri 15:33:45 43.0490 -85.4170 193° South 449 517 27,300 -1,714 Descending FlightAware ADS-B
Fri 15:34:19 42.9820 -85.4370 192° South 438 504 26,400 -1,521 Descending FlightAware ADS-B
Fri 15:34:56 42.9090 -85.4590 192° South 430 495 25,500 -1,352 Descending FlightAware ADS-B
Fri 15:35:30 42.8450 -85.4790 193° South 423 487 24,800 -1,680 Descending FlightAware ADS-B
Fri 15:35:46 42.8160 -85.4970 204° Southwest 429 494 24,100 -2,000 Descending FlightAware ADS-B
Fri 15:35:57 42.7980 -85.5170 219° Southwest 427 491 23,900 -857 Descending FlightAware ADS-B
Fri 15:36:14 42.7800 -85.5500 233° Southwest 423 487 23,700 -1,111 Descending FlightAware ADS-B
Fri 15:36:24 42.7720 -85.5800 250° West 420 483 23,400 -1,000 Descending FlightAware ADS-B
Fri 15:37:02 42.7540 -85.6760 256° West 415 478 22,900 -857 Descending FlightAware ADS-B
Fri 15:37:34 42.7400 -85.7560 257° West 412 474 22,400 -1,043 Descending FlightAware ADS-B
Fri 15:38:11 42.7240 -85.8500 257° West 410 472 21,700 -1,167 Descending FlightAware ADS-B
Fri 15:38:46 42.7080 -85.9370 256° West 418 481 21,000 -1,083 Descending FlightAware ADS-B
Fri 15:39:23 42.6900 -86.0320 256° West 420 483 20,400 -870 Descending FlightAware ADS-B
Fri 15:39:55 42.6750 -86.1130 256° West 411 473 20,000 -348 Descending FlightAware ADS-B
Fri 15:40:32 42.6580 -86.2030 256° West 412 474 20,000  Level FlightAware ADS-B
Fri 15:41:06 42.6420 -86.2920 256° West 413 475 20,000  Level FlightAware ADS-B
Fri 15:41:41 42.6260 -86.3810 256° West 413 475 20,000 -441 Level FlightAware ADS-B
Fri 15:42:14 42.6110 -86.4610 256° West 407 468 19,500 -1,816 Descending FlightAware ADS-B
Fri 15:42:57 42.5900 -86.5680 255° West 404 465 17,700 -2,475 Descending FlightAware ADS-B
Fri 15:43:34 42.5740 -86.6570 256° West 397 457 16,200 -2,314 Descending FlightAware ADS-B
Fri 15:44:07 42.5590 -86.7290 254° West 389 448 15,000 -2,400 Descending FlightAware ADS-B
Fri 15:44:44 42.5350 -86.8190 250° West 381 438 13,400 -2,384 Descending FlightAware ADS-B
Fri 15:45:20 42.5140 -86.8970 250° West 376 433 12,100 -2,206 Descending FlightAware ADS-B
Fri 15:45:52 42.4950 -86.9670 250° West 372 428 10,900 -1,676 Descending FlightAware ADS-B
Fri 15:46:28 42.4740 -87.0450 250° West 365 420 10,200 -1,179 Descending FlightAware ADS-B
Fri 15:46:48 42.4620 -87.0890 250° West 363 418 9,800 -571 Descending FlightAware ADS-B
Fri 15:47:10 42.4480 -87.1380 249° West 361 415 9,800  Level FlightAware ADS-B
Fri 15:47:32 42.4360 -87.1830 250° West 362 417 9,800  Level FlightAware ADS-B
Fri 15:47:44 42.4290 -87.2080 249° West 363 418 9,800  Level FlightAware ADS-B
Fri 15:48:08 42.4150 -87.2600 250° West 363 418 9,800  Level FlightAware ADS-B
Fri 15:48:28 42.4040 -87.3000 250° West 362 417 9,800  Level FlightAware ADS-B
Fri 15:48:48 42.3920 -87.3440 250° West 362 417 9,800  Level FlightAware ADS-B
Fri 15:49:07 42.3800 -87.3850 248° West 362 417 9,800  Level FlightAware ADS-B
Fri 15:49:30 42.3670 -87.4320 249° West 362 417 9,800  Level FlightAware ADS-B
Fri 15:49:46 42.3570 -87.4680 249° West 363 418 9,800  Level FlightAware ADS-B
Fri 15:50:04 42.3460 -87.5070 249° West 362 417 9,800  Level FlightAware ADS-B
Fri 15:50:14 42.3380 -87.5250 239° Southwest 361 415 9,800  Level FlightAware ADS-B
Fri 15:50:28 42.3230 -87.5500 231° Southwest 360 414 9,800  Level FlightAware ADS-B
Fri 15:50:48 42.2990 -87.5780 221° Southwest 350 403 9,800  Level FlightAware ADS-B
Fri 15:51:08 42.2740 -87.6050 219° Southwest 323 372 9,800  Level FlightAware ADS-B
Fri 15:51:28 42.2510 -87.6280 217° Southwest 297 342 9,800 -409 Level FlightAware ADS-B
Fri 15:51:52 42.2250 -87.6540 217° Southwest 287 330 9,500 -955 Descending FlightAware ADS-B
Fri 15:52:12 42.2050 -87.6770 220° Southwest 284 327 9,100 -1,385 Descending FlightAware ADS-B
Fri 15:52:18 42.1990 -87.6870 231° Southwest 284 327 8,900 -900 Descending FlightAware ADS-B
Fri 15:52:32 42.1910 -87.7060 240° Southwest 286 329 8,800 -529 Descending FlightAware ADS-B
Fri 15:52:52 42.1800 -87.7410 247° West 284 327 8,600 -857 Descending FlightAware ADS-B
Fri 15:53:14 42.1690 -87.7760 247° West 286 329 8,200 -1,286 Descending FlightAware ADS-B
Fri 15:53:34 42.1590 -87.8090 248° West 285 328 7,700 -1,500 Descending FlightAware ADS-B
Fri 15:53:54 42.1490 -87.8430 248° West 283 326 7,200 -1,333 Descending FlightAware ADS-B
Fri 15:54:10 42.1420 -87.8690 250° West 281 323 6,900 -667 Descending FlightAware ADS-B
Fri 15:54:30 42.1330 -87.9020 250° West 283 326 6,800 -150 Descending FlightAware ADS-B
Fri 15:54:50 42.1240 -87.9360 250° West 284 327 6,800  Level FlightAware ADS-B
Fri 15:55:08 42.1150 -87.9660 248° West 283 326 6,800  Level FlightAware ADS-B
Fri 15:55:22 42.1100 -87.9850 250° West 277 319 6,800  Level FlightAware ADS-B
Fri 15:55:43 42.0970 -88.0170 241° Southwest 250 288 6,800  Level FlightAware ADS-B
Fri 15:56:02 42.0870 -88.0420 242° Southwest 235 270 6,800  Level FlightAware ADS-B
Fri 15:56:18 42.0780 -88.0620 239° Southwest 235 270 6,800 -429 Level FlightAware ADS-B
Fri 15:56:44 42.0650 -88.0950 242° Southwest 229 264 6,500 -857 Descending FlightAware ADS-B
Fri 15:57:00 42.0570 -88.1150 242° Southwest 229 264 6,200 -1,167 Descending FlightAware ADS-B
Fri 15:57:20 42.0460 -88.1400 239° Southwest 230 265 5,800 -1,286 Descending FlightAware ADS-B
Fri 15:57:42 42.0350 -88.1680 242° Southwest 229 264 5,300 -1,350 Descending FlightAware ADS-B
Fri 15:58:00 42.0290 -88.1920 251° West 232 267 4,900 -1,263 Descending FlightAware ADS-B
Fri 15:58:20 42.0250 -88.2210 259° West 233 268 4,500 -1,091 Descending FlightAware ADS-B
Fri 15:58:44 42.0200 -88.2550 259° West 235 270 4,100 -818 Descending FlightAware ADS-B
Fri 15:59:04 42.0160 -88.2840 259° West 232 267 3,900 -563 Descending FlightAware ADS-B
Fri 15:59:16 42.0140 -88.3000 260° West 226 260 3,800 -375 Descending FlightAware ADS-B
Fri 15:59:20 42.0120 -88.3060 246° West 220 253 3,800  Level FlightAware ADS-B
Fri 15:59:30 42.0060 -88.3160 231° Southwest 201 231 3,800 333 Level FlightAware ADS-B
Fri 15:59:38 42.0000 -88.3200 206° Southwest 189 217 3,900 375 Climbing FlightAware ADS-B
Fri 15:59:46 41.9930 -88.3220 192° South 184 212 3,900 -194 Level FlightAware ADS-B
Fri 16:00:09 41.9760 -88.3140 161° South 185 213 3,800 -231 Descending FlightAware ADS-B
Fri 16:00:12 41.9730 -88.3090 129° Southeast 185 213 3,800 545 Level FlightAware ADS-B
Fri 16:00:20 41.9710 -88.3020 111° Southeast 189 217 3,900 333 Climbing FlightAware ADS-B
Fri 16:00:30 41.9680 -88.2910 110° East 190 219 3,900 -214 Level FlightAware ADS-B
Fri 16:00:48 41.9680 -88.2690 90° East 191 220 3,800 -158 Descending FlightAware ADS-B
Fri 16:01:08 41.9680 -88.2450 90° East 188 216 3,800  Level FlightAware ADS-B
Fri 16:01:22 41.9680 -88.2290 90° East 188 216 3,800  Level FlightAware ADS-B
Fri 16:01:46 41.9680 -88.2010 90° East 187 215 3,800  Level FlightAware ADS-B
Fri 16:02:18 41.9680 -88.1640 90° East 188 216 3,800 -387 Level FlightAware ADS-B
Fri 16:02:48 41.9680 -88.1290 90° East 189 217 3,400 -968 Descending FlightAware ADS-B
Fri 16:03:20 41.9690 -88.0950 88° East 187 215 2,800 -985 Descending FlightAware ADS-B
Fri 16:03:55 41.9690 -88.0530 90° East 180 207 2,300 -947 Descending FlightAware ADS-B
Fri 16:04:17 41.9690 -88.0290 90° East 166 191 1,900 -933 Descending FlightAware ADS-B
Fri 16:04:40 41.9690 -88.0060 90° East 156 180 1,600 -698 Descending FlightAware ADS-B
Fri 16:05:00 41.9690 -87.9910 90° East 150 173 1,400 -732 Descending FlightAware ADS-B
Fri 16:05:21 41.9690 -87.9680 90° East 143 165 1,100 -878 Descending FlightAware ADS-B
Fri 16:05:41 41.9690 -87.9500 90° East 148 170 800 -837 Descending FlightAware ADS-B
Fri 16:06:04 41.9690 -87.9290 90° East 146 168 500 -316 Descending FlightAware ADS-B
Fri 16:06:38 41.9690 -87.9030 90° East 143 165 500  Level FlightAware ADS-B

Login

Don't have an account? Register now (free) for customized features, flight alerts, and more!